sensor_id;sensor_type;location;lat;lon;timestamp;P1;durP1;ratioP1;P2;durP2;ratioP2
7983;SDS011;4037;47.980;10.172;2023-08-21T00:02:04;7.03;;;5.10;;
7983;SDS011;4037;47.980;10.172;2023-08-21T00:04:30;6.10;;;4.72;;
7983;SDS011;4037;47.980;10.172;2023-08-21T00:06:56;5.60;;;5.05;;
7983;SDS011;4037;47.980;10.172;2023-08-21T00:09:22;5.97;;;4.53;;
7983;SDS011;4037;47.980;10.172;2023-08-21T00:11:48;4.63;;;4.18;;
7983;SDS011;4037;47.980;10.172;2023-08-21T00:14:14;5.82;;;4.78;;
7983;SDS011;4037;47.980;10.172;2023-08-21T00:16:40;4.32;;;3.92;;
7983;SDS011;4037;47.980;10.172;2023-08-21T00:19:06;8.38;;;5.15;;
7983;SDS011;4037;47.980;10.172;2023-08-21T00:21:32;6.00;;;4.75;;
7983;SDS011;4037;47.980;10.172;2023-08-21T00:23:58;5.40;;;4.90;;
7983;SDS011;4037;47.980;10.172;2023-08-21T00:26:24;5.88;;;4.60;;
7983;SDS011;4037;47.980;10.172;2023-08-21T00:28:50;6.38;;;4.82;;
7983;SDS011;4037;47.980;10.172;2023-08-21T00:31:16;6.43;;;5.25;;
7983;SDS011;4037;47.980;10.172;2023-08-21T00:33:42;8.68;;;4.85;;
7983;SDS011;4037;47.980;10.172;2023-08-21T00:36:08;6.35;;;5.07;;
7983;SDS011;4037;47.980;10.172;2023-08-21T00:38:34;5.30;;;4.75;;
7983;SDS011;4037;47.980;10.172;2023-08-21T00:41:00;6.40;;;4.95;;
7983;SDS011;4037;47.980;10.172;2023-08-21T00:43:26;7.47;;;4.75;;
7983;SDS011;4037;47.980;10.172;2023-08-21T00:45:52;6.80;;;5.22;;
7983;SDS011;4037;47.980;10.172;2023-08-21T00:48:19;6.60;;;5.05;;
7983;SDS011;4037;47.980;10.172;2023-08-21T00:50:45;5.65;;;4.70;;
7983;SDS011;4037;47.980;10.172;2023-08-21T00:53:11;6.53;;;4.95;;
7983;SDS011;4037;47.980;10.172;2023-08-21T00:55:38;6.60;;;4.05;;
7983;SDS011;4037;47.980;10.172;2023-08-21T00:58:04;5.68;;;4.47;;
7983;SDS011;4037;47.980;10.172;2023-08-21T01:00:31;6.97;;;4.97;;
7983;SDS011;4037;47.980;10.172;2023-08-21T01:02:57;8.13;;;4.80;;
7983;SDS011;4037;47.980;10.172;2023-08-21T01:05:23;7.03;;;4.90;;
7983;SDS011;4037;47.980;10.172;2023-08-21T01:15:28;8.02;;;5.43;;
7983;SDS011;4037;47.980;10.172;2023-08-21T01:17:55;5.50;;;4.95;;
7983;SDS011;4037;47.980;10.172;2023-08-21T01:20:21;9.55;;;4.85;;
7983;SDS011;4037;47.980;10.172;2023-08-21T01:22:47;6.68;;;5.38;;
7983;SDS011;4037;47.980;10.172;2023-08-21T01:25:15;7.55;;;6.05;;
7983;SDS011;4037;47.980;10.172;2023-08-21T01:27:42;5.68;;;5.00;;
7983;SDS011;4037;47.980;10.172;2023-08-21T01:30:09;7.10;;;5.30;;
7983;SDS011;4037;47.980;10.172;2023-08-21T01:33:09;7.93;;;5.90;;
7983;SDS011;4037;47.980;10.172;2023-08-21T01:35:30;6.60;;;5.00;;
7983;SDS011;4037;47.980;10.172;2023-08-21T01:37:56;6.90;;;5.28;;
7983;SDS011;4037;47.980;10.172;2023-08-21T01:40:23;6.05;;;5.05;;
7983;SDS011;4037;47.980;10.172;2023-08-21T01:42:49;7.70;;;4.82;;
7983;SDS011;4037;47.980;10.172;2023-08-21T01:45:15;6.72;;;5.80;;
7983;SDS011;4037;47.980;10.172;2023-08-21T01:47:41;8.35;;;5.50;;
7983;SDS011;4037;47.980;10.172;2023-08-21T01:50:07;6.60;;;5.53;;
7983;SDS011;4037;47.980;10.172;2023-08-21T01:52:34;5.75;;;4.80;;
7983;SDS011;4037;47.980;10.172;2023-08-21T01:55:00;6.18;;;5.13;;
7983;SDS011;4037;47.980;10.172;2023-08-21T01:57:26;7.38;;;4.93;;
7983;SDS011;4037;47.980;10.172;2023-08-21T01:59:52;5.93;;;5.10;;
7983;SDS011;4037;47.980;10.172;2023-08-21T02:02:18;8.75;;;4.95;;
7983;SDS011;4037;47.980;10.172;2023-08-21T02:04:44;7.68;;;5.60;;
7983;SDS011;4037;47.980;10.172;2023-08-21T02:07:10;5.40;;;4.80;;
7983;SDS011;4037;47.980;10.172;2023-08-21T02:09:36;5.63;;;5.03;;
7983;SDS011;4037;47.980;10.172;2023-08-21T02:12:02;7.25;;;5.03;;
7983;SDS011;4037;47.980;10.172;2023-08-21T02:14:28;5.20;;;4.57;;
7983;SDS011;4037;47.980;10.172;2023-08-21T02:16:54;9.27;;;5.03;;
7983;SDS011;4037;47.980;10.172;2023-08-21T02:19:20;6.75;;;4.97;;
7983;SDS011;4037;47.980;10.172;2023-08-21T02:21:46;6.83;;;4.93;;
7983;SDS011;4037;47.980;10.172;2023-08-21T02:24:12;7.32;;;5.07;;
7983;SDS011;4037;47.980;10.172;2023-08-21T02:26:38;6.17;;;4.60;;
7983;SDS011;4037;47.980;10.172;2023-08-21T02:29:04;6.37;;;5.27;;
7983;SDS011;4037;47.980;10.172;2023-08-21T02:31:30;5.22;;;4.72;;
7983;SDS011;4037;47.980;10.172;2023-08-21T02:33:56;6.35;;;5.05;;
7983;SDS011;4037;47.980;10.172;2023-08-21T02:36:22;6.57;;;4.57;;
7983;SDS011;4037;47.980;10.172;2023-08-21T02:38:49;6.33;;;4.90;;
7983;SDS011;4037;47.980;10.172;2023-08-21T02:41:15;8.67;;;5.53;;
7983;SDS011;4037;47.980;10.172;2023-08-21T02:43:42;6.20;;;5.60;;
7983;SDS011;4037;47.980;10.172;2023-08-21T02:46:08;6.65;;;5.57;;
7983;SDS011;4037;47.980;10.172;2023-08-21T02:48:34;9.00;;;6.32;;
7983;SDS011;4037;47.980;10.172;2023-08-21T02:51:00;5.67;;;5.03;;
7983;SDS011;4037;47.980;10.172;2023-08-21T02:53:27;5.20;;;4.70;;
7983;SDS011;4037;47.980;10.172;2023-08-21T02:55:53;8.20;;;5.60;;
7983;SDS011;4037;47.980;10.172;2023-08-21T02:58:19;5.27;;;4.77;;
7983;SDS011;4037;47.980;10.172;2023-08-21T03:00:45;7.88;;;5.95;;
7983;SDS011;4037;47.980;10.172;2023-08-21T03:03:11;6.88;;;5.38;;
7983;SDS011;4037;47.980;10.172;2023-08-21T03:05:37;5.57;;;5.07;;
7983;SDS011;4037;47.980;10.172;2023-08-21T03:08:03;7.30;;;5.30;;
7983;SDS011;4037;47.980;10.172;2023-08-21T03:10:29;8.57;;;4.90;;
7983;SDS011;4037;47.980;10.172;2023-08-21T03:12:58;6.07;;;5.00;;
7983;SDS011;4037;47.980;10.172;2023-08-21T03:15:24;7.03;;;4.95;;
7983;SDS011;4037;47.980;10.172;2023-08-21T03:17:50;6.88;;;5.32;;
7983;SDS011;4037;47.980;10.172;2023-08-21T03:20:16;5.13;;;4.63;;
7983;SDS011;4037;47.980;10.172;2023-08-21T03:22:42;6.43;;;5.30;;
7983;SDS011;4037;47.980;10.172;2023-08-21T03:25:09;4.93;;;4.40;;
7983;SDS011;4037;47.980;10.172;2023-08-21T03:27:35;6.80;;;5.07;;
7983;SDS011;4037;47.980;10.172;2023-08-21T03:30:05;7.63;;;5.00;;
7983;SDS011;4037;47.980;10.172;2023-08-21T03:32:32;8.55;;;4.90;;
7983;SDS011;4037;47.980;10.172;2023-08-21T03:34:58;7.03;;;5.15;;
7983;SDS011;4037;47.980;10.172;2023-08-21T03:37:24;5.95;;;5.35;;
7983;SDS011;4037;47.980;10.172;2023-08-21T03:39:50;5.80;;;4.97;;
7983;SDS011;4037;47.980;10.172;2023-08-21T03:42:16;6.38;;;5.32;;
7983;SDS011;4037;47.980;10.172;2023-08-21T03:44:42;7.50;;;5.10;;
7983;SDS011;4037;47.980;10.172;2023-08-21T03:47:08;7.03;;;5.20;;
7983;SDS011;4037;47.980;10.172;2023-08-21T03:49:34;10.68;;;5.35;;
7983;SDS011;4037;47.980;10.172;2023-08-21T03:52:00;6.20;;;4.75;;
7983;SDS011;4037;47.980;10.172;2023-08-21T03:54:26;7.03;;;5.10;;
7983;SDS011;4037;47.980;10.172;2023-08-21T03:56:52;7.57;;;6.00;;
7983;SDS011;4037;47.980;10.172;2023-08-21T03:59:18;5.47;;;4.97;;
7983;SDS011;4037;47.980;10.172;2023-08-21T04:01:44;8.27;;;5.13;;
7983;SDS011;4037;47.980;10.172;2023-08-21T04:04:10;8.30;;;5.53;;
7983;SDS011;4037;47.980;10.172;2023-08-21T04:06:36;5.37;;;4.60;;
7983;SDS011;4037;47.980;10.172;2023-08-21T04:09:02;5.80;;;5.20;;
7983;SDS011;4037;47.980;10.172;2023-08-21T04:11:31;7.90;;;5.77;;
7983;SDS011;4037;47.980;10.172;2023-08-21T04:13:57;5.87;;;5.27;;
7983;SDS011;4037;47.980;10.172;2023-08-21T04:16:24;11.77;;;5.17;;
7983;SDS011;4037;47.980;10.172;2023-08-21T04:18:50;7.37;;;5.47;;
7983;SDS011;4037;47.980;10.172;2023-08-21T04:21:16;7.50;;;5.43;;
7983;SDS011;4037;47.980;10.172;2023-08-21T04:23:43;7.78;;;5.63;;
7983;SDS011;4037;47.980;10.172;2023-08-21T04:26:10;8.40;;;5.78;;
7983;SDS011;4037;47.980;10.172;2023-08-21T04:28:36;6.67;;;5.97;;
7983;SDS011;4037;47.980;10.172;2023-08-21T04:31:04;7.50;;;4.95;;
7983;SDS011;4037;47.980;10.172;2023-08-21T04:33:30;7.22;;;5.50;;
7983;SDS011;4037;47.980;10.172;2023-08-21T04:35:56;12.97;;;5.47;;
7983;SDS011;4037;47.980;10.172;2023-08-21T04:38:22;6.53;;;5.50;;
7983;SDS011;4037;47.980;10.172;2023-08-21T04:40:48;7.53;;;5.72;;
7983;SDS011;4037;47.980;10.172;2023-08-21T04:43:14;7.03;;;6.07;;
7983;SDS011;4037;47.980;10.172;2023-08-21T04:45:50;6.97;;;6.23;;
7983;SDS011;4037;47.980;10.172;2023-08-21T04:48:17;8.47;;;5.77;;
7983;SDS011;4037;47.980;10.172;2023-08-21T04:50:45;8.97;;;5.80;;
7983;SDS011;4037;47.980;10.172;2023-08-21T04:53:11;5.87;;;5.17;;
7983;SDS011;4037;47.980;10.172;2023-08-21T04:55:37;6.80;;;5.70;;
7983;SDS011;4037;47.980;10.172;2023-08-21T04:58:05;8.05;;;5.88;;
7983;SDS011;4037;47.980;10.172;2023-08-21T05:00:31;7.83;;;6.00;;
7983;SDS011;4037;47.980;10.172;2023-08-21T05:02:57;8.65;;;6.00;;
7983;SDS011;4037;47.980;10.172;2023-08-21T05:05:23;8.50;;;5.83;;
7983;SDS011;4037;47.980;10.172;2023-08-21T05:07:49;5.88;;;5.15;;
7983;SDS011;4037;47.980;10.172;2023-08-21T05:10:15;7.10;;;5.87;;
7983;SDS011;4037;47.980;10.172;2023-08-21T05:12:41;7.13;;;6.28;;
7983;SDS011;4037;47.980;10.172;2023-08-21T05:15:07;6.63;;;5.60;;
7983;SDS011;4037;47.980;10.172;2023-08-21T05:17:33;6.10;;;5.50;;
7983;SDS011;4037;47.980;10.172;2023-08-21T05:19:59;6.30;;;5.70;;
7983;SDS011;4037;47.980;10.172;2023-08-21T05:22:25;7.60;;;6.00;;
7983;SDS011;4037;47.980;10.172;2023-08-21T05:24:51;9.10;;;5.80;;
7983;SDS011;4037;47.980;10.172;2023-08-21T05:27:17;9.00;;;6.30;;
7983;SDS011;4037;47.980;10.172;2023-08-21T05:29:43;7.20;;;6.13;;
7983;SDS011;4037;47.980;10.172;2023-08-21T05:32:09;7.57;;;6.37;;
7983;SDS011;4037;47.980;10.172;2023-08-21T05:34:35;6.60;;;6.00;;
7983;SDS011;4037;47.980;10.172;2023-08-21T05:37:02;7.13;;;6.43;;
7983;SDS011;4037;47.980;10.172;2023-08-21T05:39:28;6.80;;;6.10;;
7983;SDS011;4037;47.980;10.172;2023-08-21T05:41:54;7.73;;;6.93;;
7983;SDS011;4037;47.980;10.172;2023-08-21T05:44:20;7.40;;;5.97;;
7983;SDS011;4037;47.980;10.172;2023-08-21T05:46:46;9.48;;;5.97;;
7983;SDS011;4037;47.980;10.172;2023-08-21T05:49:12;9.97;;;6.43;;
7983;SDS011;4037;47.980;10.172;2023-08-21T05:51:38;6.87;;;6.17;;
7983;SDS011;4037;47.980;10.172;2023-08-21T05:54:04;6.45;;;5.78;;
7983;SDS011;4037;47.980;10.172;2023-08-21T05:56:30;7.40;;;5.97;;
7983;SDS011;4037;47.980;10.172;2023-08-21T05:58:56;6.65;;;5.80;;
7983;SDS011;4037;47.980;10.172;2023-08-21T06:01:22;6.90;;;5.57;;
7983;SDS011;4037;47.980;10.172;2023-08-21T06:03:48;9.57;;;5.90;;
7983;SDS011;4037;47.980;10.172;2023-08-21T06:06:14;8.77;;;6.03;;
7983;SDS011;4037;47.980;10.172;2023-08-21T06:08:40;6.80;;;5.33;;
7983;SDS011;4037;47.980;10.172;2023-08-21T06:11:06;10.25;;;7.13;;
7983;SDS011;4037;47.980;10.172;2023-08-21T06:13:32;9.38;;;6.07;;
7983;SDS011;4037;47.980;10.172;2023-08-21T06:15:57;8.93;;;6.90;;
7983;SDS011;4037;47.980;10.172;2023-08-21T06:18:23;8.43;;;6.63;;
7983;SDS011;4037;47.980;10.172;2023-08-21T06:20:49;7.57;;;6.37;;
7983;SDS011;4037;47.980;10.172;2023-08-21T06:23:18;8.43;;;6.35;;
7983;SDS011;4037;47.980;10.172;2023-08-21T06:25:44;11.82;;;7.20;;
7983;SDS011;4037;47.980;10.172;2023-08-21T06:28:11;7.20;;;6.38;;
7983;SDS011;4037;47.980;10.172;2023-08-21T06:30:37;6.82;;;5.65;;
7983;SDS011;4037;47.980;10.172;2023-08-21T06:33:03;7.03;;;5.20;;
7983;SDS011;4037;47.980;10.172;2023-08-21T06:35:29;7.18;;;5.82;;
7983;SDS011;4037;47.980;10.172;2023-08-21T06:37:55;9.45;;;6.07;;
7983;SDS011;4037;47.980;10.172;2023-08-21T06:40:21;7.35;;;5.78;;
7983;SDS011;4037;47.980;10.172;2023-08-21T06:42:47;6.55;;;4.93;;
7983;SDS011;4037;47.980;10.172;2023-08-21T06:45:15;9.02;;;5.55;;
7983;SDS011;4037;47.980;10.172;2023-08-21T06:47:42;6.78;;;5.50;;
7983;SDS011;4037;47.980;10.172;2023-08-21T06:50:08;9.00;;;5.80;;
7983;SDS011;4037;47.980;10.172;2023-08-21T06:52:34;8.82;;;6.18;;
7983;SDS011;4037;47.980;10.172;2023-08-21T06:55:00;12.68;;;7.03;;
7983;SDS011;4037;47.980;10.172;2023-08-21T06:57:27;7.03;;;6.00;;
7983;SDS011;4037;47.980;10.172;2023-08-21T06:59:53;10.13;;;6.15;;
7983;SDS011;4037;47.980;10.172;2023-08-21T07:02:19;7.70;;;6.35;;
7983;SDS011;4037;47.980;10.172;2023-08-21T07:04:45;6.80;;;5.85;;
7983;SDS011;4037;47.980;10.172;2023-08-21T07:07:11;8.65;;;5.95;;
7983;SDS011;4037;47.980;10.172;2023-08-21T07:09:37;7.80;;;5.63;;
7983;SDS011;4037;47.980;10.172;2023-08-21T07:12:03;9.95;;;5.50;;
7983;SDS011;4037;47.980;10.172;2023-08-21T07:14:29;8.18;;;6.35;;
7983;SDS011;4037;47.980;10.172;2023-08-21T07:16:55;8.85;;;6.45;;
7983;SDS011;4037;47.980;10.172;2023-08-21T07:19:21;6.95;;;5.93;;
7983;SDS011;4037;47.980;10.172;2023-08-21T07:21:47;7.57;;;6.45;;
7983;SDS011;4037;47.980;10.172;2023-08-21T07:24:14;8.93;;;6.40;;
7983;SDS011;4037;47.980;10.172;2023-08-21T07:26:40;7.30;;;5.35;;
7983;SDS011;4037;47.980;10.172;2023-08-21T07:29:06;9.40;;;5.88;;
7983;SDS011;4037;47.980;10.172;2023-08-21T07:31:32;7.60;;;6.30;;
7983;SDS011;4037;47.980;10.172;2023-08-21T07:33:58;13.10;;;6.47;;
7983;SDS011;4037;47.980;10.172;2023-08-21T07:36:24;8.45;;;6.00;;
7983;SDS011;4037;47.980;10.172;2023-08-21T07:38:50;8.52;;;6.45;;
7983;SDS011;4037;47.980;10.172;2023-08-21T07:41:16;7.55;;;5.57;;
7983;SDS011;4037;47.980;10.172;2023-08-21T07:43:43;8.15;;;5.85;;
7983;SDS011;4037;47.980;10.172;2023-08-21T07:46:10;9.02;;;5.78;;
7983;SDS011;4037;47.980;10.172;2023-08-21T07:48:38;8.68;;;6.10;;
7983;SDS011;4037;47.980;10.172;2023-08-21T07:51:04;7.22;;;5.60;;
7983;SDS011;4037;47.980;10.172;2023-08-21T07:53:30;8.55;;;5.57;;
7983;SDS011;4037;47.980;10.172;2023-08-21T07:55:57;9.95;;;6.18;;
7983;SDS011;4037;47.980;10.172;2023-08-21T07:58:24;5.88;;;5.20;;
7983;SDS011;4037;47.980;10.172;2023-08-21T08:00:50;6.68;;;5.93;;
7983;SDS011;4037;47.980;10.172;2023-08-21T08:03:16;7.80;;;5.65;;
7983;SDS011;4037;47.980;10.172;2023-08-21T08:05:42;6.35;;;5.72;;
7983;SDS011;4037;47.980;10.172;2023-08-21T08:08:08;9.07;;;5.60;;
7983;SDS011;4037;47.980;10.172;2023-08-21T08:10:38;7.18;;;5.50;;
7983;SDS011;4037;47.980;10.172;2023-08-21T08:13:04;9.15;;;5.57;;
7983;SDS011;4037;47.980;10.172;2023-08-21T08:15:30;7.45;;;6.00;;
7983;SDS011;4037;47.980;10.172;2023-08-21T08:17:56;8.48;;;5.60;;
7983;SDS011;4037;47.980;10.172;2023-08-21T08:20:23;8.05;;;5.50;;
7983;SDS011;4037;47.980;10.172;2023-08-21T08:22:49;7.75;;;6.70;;
7983;SDS011;4037;47.980;10.172;2023-08-21T08:25:15;10.10;;;6.10;;
7983;SDS011;4037;47.980;10.172;2023-08-21T08:27:42;6.05;;;5.45;;
7983;SDS011;4037;47.980;10.172;2023-08-21T08:30:08;9.10;;;6.40;;
7983;SDS011;4037;47.980;10.172;2023-08-21T08:32:34;7.18;;;6.32;;
7983;SDS011;4037;47.980;10.172;2023-08-21T08:35:00;6.50;;;5.45;;
7983;SDS011;4037;47.980;10.172;2023-08-21T08:37:26;6.65;;;5.20;;
7983;SDS011;4037;47.980;10.172;2023-08-21T08:39:52;9.48;;;6.20;;
7983;SDS011;4037;47.980;10.172;2023-08-21T08:42:18;8.70;;;5.82;;
7983;SDS011;4037;47.980;10.172;2023-08-21T08:44:44;9.68;;;6.75;;
7983;SDS011;4037;47.980;10.172;2023-08-21T08:47:10;7.60;;;5.93;;
7983;SDS011;4037;47.980;10.172;2023-08-21T08:49:37;7.25;;;5.97;;
7983;SDS011;4037;47.980;10.172;2023-08-21T08:52:03;6.68;;;5.30;;
7983;SDS011;4037;47.980;10.172;2023-08-21T08:54:30;6.35;;;5.68;;
7983;SDS011;4037;47.980;10.172;2023-08-21T08:56:56;9.05;;;6.38;;
7983;SDS011;4037;47.980;10.172;2023-08-21T08:59:22;9.15;;;6.07;;
7983;SDS011;4037;47.980;10.172;2023-08-21T09:01:48;6.95;;;6.20;;
7983;SDS011;4037;47.980;10.172;2023-08-21T09:04:14;6.55;;;5.82;;
7983;SDS011;4037;47.980;10.172;2023-08-21T09:06:40;6.30;;;5.70;;
7983;SDS011;4037;47.980;10.172;2023-08-21T09:09:07;8.65;;;6.90;;
7983;SDS011;4037;47.980;10.172;2023-08-21T09:11:35;8.43;;;6.00;;
7983;SDS011;4037;47.980;10.172;2023-08-21T09:14:01;8.88;;;5.70;;
7983;SDS011;4037;47.980;10.172;2023-08-21T09:16:27;8.02;;;5.43;;
7983;SDS011;4037;47.980;10.172;2023-08-21T09:18:54;9.02;;;6.03;;
7983;SDS011;4037;47.980;10.172;2023-08-21T09:21:21;8.13;;;6.20;;
7983;SDS011;4037;47.980;10.172;2023-08-21T09:23:49;8.70;;;6.40;;
7983;SDS011;4037;47.980;10.172;2023-08-21T09:26:19;9.05;;;6.60;;
7983;SDS011;4037;47.980;10.172;2023-08-21T09:28:46;6.60;;;5.90;;
7983;SDS011;4037;47.980;10.172;2023-08-21T09:31:12;8.70;;;7.80;;
7983;SDS011;4037;47.980;10.172;2023-08-21T09:33:38;7.82;;;6.93;;
7983;SDS011;4037;47.980;10.172;2023-08-21T09:36:04;7.55;;;6.72;;
7983;SDS011;4037;47.980;10.172;2023-08-21T09:38:30;6.97;;;6.25;;
7983;SDS011;4037;47.980;10.172;2023-08-21T09:40:56;7.18;;;5.68;;
7983;SDS011;4037;47.980;10.172;2023-08-21T09:43:23;7.20;;;5.95;;
7983;SDS011;4037;47.980;10.172;2023-08-21T09:45:50;7.50;;;5.72;;
7983;SDS011;4037;47.980;10.172;2023-08-21T09:48:23;7.53;;;5.93;;
7983;SDS011;4037;47.980;10.172;2023-08-21T09:50:51;7.35;;;5.78;;
7983;SDS011;4037;47.980;10.172;2023-08-21T09:53:17;7.13;;;5.80;;
7983;SDS011;4037;47.980;10.172;2023-08-21T09:55:43;7.07;;;6.07;;
7983;SDS011;4037;47.980;10.172;2023-08-21T09:58:09;7.30;;;5.97;;
7983;SDS011;4037;47.980;10.172;2023-08-21T10:00:37;7.35;;;6.00;;
7983;SDS011;4037;47.980;10.172;2023-08-21T10:03:06;9.25;;;6.68;;
7983;SDS011;4037;47.980;10.172;2023-08-21T10:05:33;9.57;;;6.20;;
7983;SDS011;4037;47.980;10.172;2023-08-21T10:08:03;7.78;;;6.40;;
7983;SDS011;4037;47.980;10.172;2023-08-21T10:10:30;7.40;;;6.30;;
7983;SDS011;4037;47.980;10.172;2023-08-21T10:12:56;7.50;;;6.65;;
7983;SDS011;4037;47.980;10.172;2023-08-21T10:15:22;8.45;;;6.32;;
7983;SDS011;4037;47.980;10.172;2023-08-21T10:17:48;7.05;;;6.35;;
7983;SDS011;4037;47.980;10.172;2023-08-21T10:20:15;7.35;;;5.95;;
7983;SDS011;4037;47.980;10.172;2023-08-21T10:22:48;6.72;;;6.05;;
7983;SDS011;4037;47.980;10.172;2023-08-21T10:25:17;6.75;;;6.10;;
7983;SDS011;4037;47.980;10.172;2023-08-21T10:27:54;7.07;;;6.32;;
7983;SDS011;4037;47.980;10.172;2023-08-21T10:30:24;7.05;;;6.35;;
7983;SDS011;4037;47.980;10.172;2023-08-21T10:32:51;8.20;;;6.40;;
7983;SDS011;4037;47.980;10.172;2023-08-21T10:35:18;7.55;;;6.18;;
7983;SDS011;4037;47.980;10.172;2023-08-21T10:40:29;8.55;;;5.97;;
7983;SDS011;4037;47.980;10.172;2023-08-21T10:42:55;11.82;;;6.35;;
7983;SDS011;4037;47.980;10.172;2023-08-21T10:45:21;7.35;;;6.05;;
7983;SDS011;4037;47.980;10.172;2023-08-21T10:47:47;6.72;;;6.03;;
7983;SDS011;4037;47.980;10.172;2023-08-21T10:50:15;7.90;;;5.97;;
7983;SDS011;4037;47.980;10.172;2023-08-21T10:52:42;7.53;;;6.57;;
7983;SDS011;4037;47.980;10.172;2023-08-21T10:55:10;8.10;;;6.60;;
7983;SDS011;4037;47.980;10.172;2023-08-21T10:57:37;9.18;;;5.68;;
7983;SDS011;4037;47.980;10.172;2023-08-21T11:02:37;7.38;;;6.28;;
7983;SDS011;4037;47.980;10.172;2023-08-21T11:05:03;7.00;;;6.30;;
7983;SDS011;4037;47.980;10.172;2023-08-21T11:07:30;9.18;;;7.13;;
7983;SDS011;4037;47.980;10.172;2023-08-21T11:09:56;7.03;;;6.03;;
7983;SDS011;4037;47.980;10.172;2023-08-21T11:12:22;6.43;;;5.82;;
7983;SDS011;4037;47.980;10.172;2023-08-21T11:14:49;6.50;;;5.82;;
7983;SDS011;4037;47.980;10.172;2023-08-21T11:17:15;8.00;;;6.25;;
7983;SDS011;4037;47.980;10.172;2023-08-21T11:19:42;7.45;;;6.57;;
7983;SDS011;4037;47.980;10.172;2023-08-21T11:22:08;6.00;;;5.40;;
7983;SDS011;4037;47.980;10.172;2023-08-21T11:27:13;6.28;;;5.40;;
7983;SDS011;4037;47.980;10.172;2023-08-21T11:29:40;8.30;;;6.35;;
7983;SDS011;4037;47.980;10.172;2023-08-21T11:32:13;6.90;;;6.20;;
7983;SDS011;4037;47.980;10.172;2023-08-21T11:34:43;8.63;;;6.70;;
7983;SDS011;4037;47.980;10.172;2023-08-21T11:37:12;7.10;;;5.05;;
7983;SDS011;4037;47.980;10.172;2023-08-21T11:39:48;8.35;;;5.97;;
7983;SDS011;4037;47.980;10.172;2023-08-21T11:42:14;9.35;;;6.22;;
7983;SDS011;4037;47.980;10.172;2023-08-21T11:44:48;6.88;;;5.18;;
7983;SDS011;4037;47.980;10.172;2023-08-21T11:47:16;7.85;;;5.55;;
7983;SDS011;4037;47.980;10.172;2023-08-21T11:49:43;5.88;;;5.28;;
7983;SDS011;4037;47.980;10.172;2023-08-21T11:52:10;10.52;;;5.72;;
7983;SDS011;4037;47.980;10.172;2023-08-21T11:54:37;7.80;;;5.65;;
7983;SDS011;4037;47.980;10.172;2023-08-21T11:57:21;6.90;;;5.43;;
7983;SDS011;4037;47.980;10.172;2023-08-21T11:59:51;6.63;;;5.18;;
7983;SDS011;4037;47.980;10.172;2023-08-21T12:02:18;7.45;;;6.03;;
7983;SDS011;4037;47.980;10.172;2023-08-21T12:04:45;9.43;;;5.68;;
7983;SDS011;4037;47.980;10.172;2023-08-21T12:07:17;6.97;;;5.15;;
7983;SDS011;4037;47.980;10.172;2023-08-21T12:09:46;8.93;;;5.20;;
7983;SDS011;4037;47.980;10.172;2023-08-21T12:12:13;5.78;;;5.05;;
7983;SDS011;4037;47.980;10.172;2023-08-21T12:14:39;6.53;;;5.90;;
7983;SDS011;4037;47.980;10.172;2023-08-21T12:17:05;6.75;;;5.25;;
7983;SDS011;4037;47.980;10.172;2023-08-21T12:19:32;5.90;;;5.20;;
7983;SDS011;4037;47.980;10.172;2023-08-21T12:21:58;6.65;;;5.38;;
7983;SDS011;4037;47.980;10.172;2023-08-21T12:24:24;5.80;;;5.28;;
7983;SDS011;4037;47.980;10.172;2023-08-21T12:26:50;7.82;;;5.47;;
7983;SDS011;4037;47.980;10.172;2023-08-21T12:29:17;8.10;;;5.07;;
7983;SDS011;4037;47.980;10.172;2023-08-21T12:31:43;6.82;;;5.20;;
7983;SDS011;4037;47.980;10.172;2023-08-21T12:34:09;7.15;;;5.15;;
7983;SDS011;4037;47.980;10.172;2023-08-21T12:36:35;5.07;;;4.30;;
7983;SDS011;4037;47.980;10.172;2023-08-21T12:39:04;6.90;;;5.22;;
7983;SDS011;4037;47.980;10.172;2023-08-21T12:41:31;5.78;;;4.95;;
7983;SDS011;4037;47.980;10.172;2023-08-21T12:44:00;5.93;;;5.38;;
7983;SDS011;4037;47.980;10.172;2023-08-21T12:46:28;5.32;;;4.82;;
7983;SDS011;4037;47.980;10.172;2023-08-21T12:48:55;5.75;;;5.25;;
7983;SDS011;4037;47.980;10.172;2023-08-21T12:51:21;6.10;;;4.85;;
7983;SDS011;4037;47.980;10.172;2023-08-21T12:53:47;7.25;;;5.35;;
7983;SDS011;4037;47.980;10.172;2023-08-21T12:56:13;8.52;;;5.20;;
7983;SDS011;4037;47.980;10.172;2023-08-21T12:58:39;7.07;;;5.40;;
7983;SDS011;4037;47.980;10.172;2023-08-21T13:01:05;7.00;;;4.63;;
7983;SDS011;4037;47.980;10.172;2023-08-21T13:03:33;7.68;;;4.85;;
7983;SDS011;4037;47.980;10.172;2023-08-21T13:05:59;6.68;;;5.60;;
7983;SDS011;4037;47.980;10.172;2023-08-21T13:08:25;6.30;;;4.60;;
7983;SDS011;4037;47.980;10.172;2023-08-21T13:10:52;8.27;;;4.93;;
7983;SDS011;4037;47.980;10.172;2023-08-21T13:13:18;8.25;;;5.15;;
7983;SDS011;4037;47.980;10.172;2023-08-21T13:15:44;6.15;;;5.15;;
7983;SDS011;4037;47.980;10.172;2023-08-21T13:18:11;5.47;;;4.97;;
7983;SDS011;4037;47.980;10.172;2023-08-21T13:20:39;6.32;;;5.43;;
7983;SDS011;4037;47.980;10.172;2023-08-21T13:23:05;5.65;;;4.88;;
7983;SDS011;4037;47.980;10.172;2023-08-21T13:25:31;7.32;;;4.90;;
7983;SDS011;4037;47.980;10.172;2023-08-21T13:27:57;6.93;;;5.50;;
7983;SDS011;4037;47.980;10.172;2023-08-21T13:30:23;5.90;;;5.05;;
7983;SDS011;4037;47.980;10.172;2023-08-21T13:32:50;8.13;;;5.00;;
7983;SDS011;4037;47.980;10.172;2023-08-21T13:35:16;7.90;;;5.22;;
7983;SDS011;4037;47.980;10.172;2023-08-21T13:37:42;7.32;;;5.38;;
7983;SDS011;4037;47.980;10.172;2023-08-21T13:40:08;6.13;;;4.75;;
7983;SDS011;4037;47.980;10.172;2023-08-21T13:42:39;8.77;;;4.55;;
7983;SDS011;4037;47.980;10.172;2023-08-21T13:45:06;6.88;;;4.60;;
7983;SDS011;4037;47.980;10.172;2023-08-21T13:47:33;7.75;;;5.18;;
7983;SDS011;4037;47.980;10.172;2023-08-21T13:49:59;5.07;;;4.30;;
7983;SDS011;4037;47.980;10.172;2023-08-21T13:52:25;7.85;;;5.35;;
7983;SDS011;4037;47.980;10.172;2023-08-21T13:54:51;6.60;;;5.13;;
7983;SDS011;4037;47.980;10.172;2023-08-21T13:57:17;9.13;;;5.15;;
7983;SDS011;4037;47.980;10.172;2023-08-21T13:59:43;6.00;;;4.70;;
7983;SDS011;4037;47.980;10.172;2023-08-21T14:02:09;5.07;;;4.57;;
7983;SDS011;4037;47.980;10.172;2023-08-21T14:04:35;5.60;;;5.10;;
7983;SDS011;4037;47.980;10.172;2023-08-21T14:07:01;6.65;;;4.90;;
7983;SDS011;4037;47.980;10.172;2023-08-21T14:09:27;5.30;;;4.80;;
7983;SDS011;4037;47.980;10.172;2023-08-21T14:11:53;5.45;;;4.90;;
7983;SDS011;4037;47.980;10.172;2023-08-21T14:14:19;7.20;;;4.20;;
7983;SDS011;4037;47.980;10.172;2023-08-21T14:16:45;6.63;;;4.72;;
7983;SDS011;4037;47.980;10.172;2023-08-21T14:19:11;8.23;;;4.50;;
7983;SDS011;4037;47.980;10.172;2023-08-21T14:21:37;6.68;;;4.50;;
7983;SDS011;4037;47.980;10.172;2023-08-21T14:24:03;6.13;;;4.18;;
7983;SDS011;4037;47.980;10.172;2023-08-21T14:26:29;5.85;;;4.53;;
7983;SDS011;4037;47.980;10.172;2023-08-21T14:28:55;5.32;;;4.68;;
7983;SDS011;4037;47.980;10.172;2023-08-21T14:31:24;6.07;;;4.57;;
7983;SDS011;4037;47.980;10.172;2023-08-21T14:33:50;8.80;;;4.72;;
7983;SDS011;4037;47.980;10.172;2023-08-21T14:36:16;7.03;;;4.38;;
7983;SDS011;4037;47.980;10.172;2023-08-21T14:38:42;6.53;;;4.95;;
7983;SDS011;4037;47.980;10.172;2023-08-21T14:41:08;7.13;;;5.00;;
7983;SDS011;4037;47.980;10.172;2023-08-21T14:43:34;8.32;;;4.53;;
7983;SDS011;4037;47.980;10.172;2023-08-21T14:46:00;4.90;;;4.40;;
7983;SDS011;4037;47.980;10.172;2023-08-21T14:48:26;8.38;;;4.53;;
7983;SDS011;4037;47.980;10.172;2023-08-21T14:50:52;7.63;;;4.65;;
7983;SDS011;4037;47.980;10.172;2023-08-21T14:53:18;6.40;;;4.80;;
7983;SDS011;4037;47.980;10.172;2023-08-21T14:55:44;7.35;;;4.80;;
7983;SDS011;4037;47.980;10.172;2023-08-21T14:58:10;7.03;;;4.22;;
7983;SDS011;4037;47.980;10.172;2023-08-21T15:00:36;7.55;;;4.70;;
7983;SDS011;4037;47.980;10.172;2023-08-21T15:03:05;9.35;;;4.43;;
7983;SDS011;4037;47.980;10.172;2023-08-21T15:05:35;9.73;;;5.22;;
7983;SDS011;4037;47.980;10.172;2023-08-21T15:08:01;5.60;;;4.57;;
7983;SDS011;4037;47.980;10.172;2023-08-21T15:10:27;7.38;;;4.78;;
7983;SDS011;4037;47.980;10.172;2023-08-21T15:12:53;5.43;;;4.50;;